createdAt,value
2019-03-25T00:00:29.812Z,2.79
2019-03-25T00:01:02.907Z,2.68
2019-03-25T00:01:36.007Z,2.80
2019-03-25T00:02:07.208Z,2.80
2019-03-25T00:02:38.377Z,2.80
2019-03-25T00:03:09.592Z,2.79
2019-03-25T00:03:40.846Z,2.80
2019-03-25T00:04:12.074Z,2.84
2019-03-25T00:04:43.305Z,2.84
2019-03-25T00:05:14.520Z,2.86
2019-03-25T00:05:45.740Z,2.86
2019-03-25T00:06:17.060Z,2.86
2019-03-25T00:06:48.282Z,2.88
2019-03-25T00:07:19.525Z,2.88
2019-03-25T00:07:50.724Z,2.87
2019-03-25T00:08:21.876Z,2.87
2019-03-25T00:09:04.527Z,2.88
2019-03-25T00:09:26.154Z,2.88
2019-03-25T00:09:57.406Z,2.89
2019-03-25T00:10:28.557Z,2.89
2019-03-25T00:10:59.797Z,2.89
2019-03-25T00:11:30.959Z,2.90
2019-03-25T00:12:02.246Z,2.89
2019-03-25T00:12:33.427Z,2.89
2019-03-25T00:13:04.688Z,2.89
2019-03-25T00:13:35.845Z,2.87
2019-03-25T00:14:07.060Z,2.85
2019-03-25T00:14:38.224Z,2.83
2019-03-25T00:15:09.445Z,2.81
2019-03-25T00:15:40.589Z,2.81
2019-03-25T00:16:11.812Z,2.84
2019-03-25T00:16:43.056Z,2.85
2019-03-25T00:17:14.279Z,2.84
2019-03-25T00:17:45.538Z,2.81
2019-03-25T00:18:16.736Z,2.81
2019-03-25T00:18:47.901Z,2.71
2019-03-25T00:19:19.135Z,2.78
2019-03-25T00:19:50.279Z,2.78
2019-03-25T00:20:21.520Z,2.76
2019-03-25T00:20:52.681Z,2.75
2019-03-25T00:21:23.882Z,2.71
2019-03-25T00:21:55.067Z,2.71
2019-03-25T00:22:26.253Z,2.66
2019-03-25T00:22:57.431Z,2.71
2019-03-25T00:23:28.693Z,2.71
2019-03-25T00:23:59.923Z,2.70
2019-03-25T00:24:38.685Z,2.69
2019-03-25T00:25:04.865Z,2.71
2019-03-25T00:25:36.097Z,2.73
2019-03-25T00:26:07.326Z,2.70
2019-03-25T00:26:38.538Z,2.71
2019-03-25T00:27:09.846Z,2.74
2019-03-25T00:27:41.067Z,2.73
2019-03-25T00:28:13.809Z,2.72
2019-03-25T00:28:45.134Z,2.72
2019-03-25T00:29:16.313Z,2.72
2019-03-25T00:29:47.483Z,2.70
2019-03-25T00:30:18.710Z,2.70
2019-03-25T00:30:50.018Z,2.70
2019-03-25T00:31:21.220Z,2.71
2019-03-25T00:31:52.367Z,2.68
2019-03-25T00:32:23.662Z,2.64
2019-03-25T00:32:54.842Z,2.62
2019-03-25T00:33:26.046Z,2.61
2019-03-25T00:33:57.190Z,2.60
2019-03-25T00:34:28.380Z,2.61
2019-03-25T00:34:59.550Z,2.61
2019-03-25T00:35:31.764Z,2.62
2019-03-25T00:36:02.951Z,2.62
2019-03-25T00:36:34.155Z,2.63
2019-03-25T00:37:05.295Z,2.64
2019-03-25T00:37:36.518Z,2.65
2019-03-25T00:38:07.708Z,2.65
2019-03-25T00:38:38.891Z,2.65
2019-03-25T00:39:10.081Z,2.65
2019-03-25T00:39:41.290Z,2.65
2019-03-25T00:40:12.455Z,2.65
2019-03-25T00:40:43.646Z,2.67
2019-03-25T00:41:14.849Z,2.66
2019-03-25T00:41:46.047Z,2.66
2019-03-25T00:42:17.203Z,2.68
2019-03-25T00:42:48.403Z,2.67
2019-03-25T00:43:19.592Z,2.67
2019-03-25T00:43:50.813Z,2.67
2019-03-25T00:44:21.996Z,2.67
2019-03-25T00:44:53.177Z,2.65
2019-03-25T00:45:24.366Z,2.56
2019-03-25T00:45:55.540Z,2.54
2019-03-25T00:46:26.724Z,2.54
2019-03-25T00:46:57.907Z,2.64
2019-03-25T00:47:29.088Z,2.63
2019-03-25T00:48:00.245Z,2.63
2019-03-25T00:48:31.438Z,2.62
2019-03-25T00:49:02.613Z,2.62
2019-03-25T00:49:33.806Z,2.63
2019-03-25T00:50:06.023Z,2.63
2019-03-25T00:50:37.260Z,2.60
2019-03-25T00:51:08.446Z,2.60
2019-03-25T00:51:39.619Z,2.60
2019-03-25T00:52:10.816Z,2.60
2019-03-25T00:52:42.020Z,2.58
2019-03-25T00:53:13.235Z,2.57
2019-03-25T00:53:44.433Z,2.57
2019-03-25T00:54:15.600Z,2.55
2019-03-25T00:54:50.163Z,2.54
2019-03-25T00:55:19.857Z,2.54
2019-03-25T00:55:51.091Z,2.51
2019-03-25T00:56:22.264Z,2.51
2019-03-25T00:56:54.486Z,2.52
2019-03-25T00:57:25.772Z,2.52
2019-03-25T00:57:56.942Z,2.53
2019-03-25T00:58:28.136Z,2.51
2019-03-25T00:58:59.308Z,2.52
2019-03-25T00:59:30.509Z,2.52
2019-03-25T01:00:02.873Z,2.52
2019-03-25T01:00:35.273Z,2.52
2019-03-25T01:01:06.472Z,2.54
2019-03-25T01:01:37.736Z,2.54
2019-03-25T01:02:08.897Z,2.54
2019-03-25T01:02:40.113Z,2.54
2019-03-25T01:03:11.281Z,2.55
2019-03-25T01:03:42.483Z,2.55
2019-03-25T01:04:13.636Z,2.55
2019-03-25T01:04:44.830Z,2.57
2019-03-25T01:05:16.000Z,2.56
2019-03-25T01:05:47.239Z,2.57
2019-03-25T01:06:18.501Z,2.54
2019-03-25T01:06:49.698Z,2.54
2019-03-25T01:07:20.839Z,2.54
2019-03-25T01:07:52.043Z,2.52
2019-03-25T01:08:23.179Z,2.52
2019-03-25T01:08:55.379Z,2.51
2019-03-25T01:09:26.559Z,2.45
2019-03-25T01:09:57.759Z,2.45
2019-03-25T01:10:28.895Z,2.43
2019-03-25T01:11:00.095Z,2.42
2019-03-25T01:11:31.255Z,2.41
2019-03-25T01:12:02.551Z,2.41
2019-03-25T01:12:33.701Z,2.41
2019-03-25T01:13:04.896Z,2.42
2019-03-25T01:13:36.082Z,2.41
2019-03-25T01:14:07.278Z,2.41
2019-03-25T01:14:38.424Z,2.43
2019-03-25T01:15:09.611Z,2.40
2019-03-25T01:15:40.798Z,2.43
2019-03-25T01:16:12.022Z,2.39
2019-03-25T01:16:43.191Z,2.38
2019-03-25T01:17:14.380Z,2.38
2019-03-25T01:17:45.578Z,2.25
2019-03-25T01:18:17.470Z,2.35
2019-03-25T01:18:48.768Z,2.36
2019-03-25T01:19:19.944Z,2.37
2019-03-25T01:19:51.130Z,2.34
2019-03-25T01:20:22.413Z,2.35
2019-03-25T01:20:53.703Z,2.35
2019-03-25T01:21:24.870Z,2.35
2019-03-25T01:21:56.048Z,2.35
2019-03-25T01:22:27.314Z,2.35
2019-03-25T01:22:58.496Z,2.35
2019-03-25T01:23:29.667Z,2.33
2019-03-25T01:24:00.844Z,2.33
2019-03-25T01:24:32.010Z,2.33
2019-03-25T01:25:05.031Z,2.34
2019-03-25T01:25:36.206Z,2.33
2019-03-25T01:26:07.374Z,2.29
2019-03-25T01:26:38.572Z,2.27
2019-03-25T01:27:09.741Z,2.26
2019-03-25T01:27:40.931Z,2.24
2019-03-25T01:28:12.125Z,2.23
2019-03-25T01:28:43.342Z,2.25
2019-03-25T01:29:14.518Z,2.25
2019-03-25T01:29:45.687Z,2.25
2019-03-25T01:30:16.871Z,2.26
2019-03-25T01:30:48.047Z,2.27
2019-03-25T01:31:19.231Z,2.26
2019-03-25T01:31:50.404Z,2.20
2019-03-25T01:32:21.608Z,2.24
2019-03-25T01:32:52.804Z,2.14
2019-03-25T01:33:23.994Z,2.14
2019-03-25T01:33:55.232Z,2.25
2019-03-25T01:34:26.424Z,2.21
2019-03-25T01:34:57.618Z,2.21
2019-03-25T01:35:28.811Z,2.21
2019-03-25T01:36:00.003Z,2.21
2019-03-25T01:36:31.193Z,2.21
2019-03-25T01:37:02.354Z,2.22
2019-03-25T01:37:33.529Z,2.22
2019-03-25T01:38:04.704Z,2.22
2019-03-25T01:38:35.872Z,2.22
2019-03-25T01:39:07.074Z,2.19
2019-03-25T01:39:38.306Z,2.19
2019-03-25T01:40:09.531Z,2.14
2019-03-25T01:40:40.764Z,2.14
2019-03-25T01:41:11.999Z,2.11
2019-03-25T01:41:43.218Z,2.09
2019-03-25T01:42:14.456Z,2.06
2019-03-25T01:42:45.738Z,2.06
2019-03-25T01:43:16.965Z,2.07
2019-03-25T01:43:48.186Z,2.09
2019-03-25T01:44:19.396Z,2.05
2019-03-25T01:44:50.546Z,2.05
2019-03-25T01:45:21.745Z,2.04
2019-03-25T01:45:52.884Z,2.02
2019-03-25T01:46:24.187Z,2.03
2019-03-25T01:46:55.342Z,2.06
2019-03-25T01:47:26.616Z,2.06
2019-03-25T01:47:57.769Z,2.06
2019-03-25T01:48:28.981Z,2.10
2019-03-25T01:49:00.135Z,2.09
2019-03-25T01:49:31.364Z,2.10
2019-03-25T01:50:05.213Z,2.09
2019-03-25T01:50:36.409Z,2.11
2019-03-25T01:51:07.571Z,2.11
2019-03-25T01:51:38.767Z,2.04
2019-03-25T01:52:09.976Z,2.06
2019-03-25T01:52:41.173Z,2.03
2019-03-25T01:53:12.321Z,2.01
2019-03-25T01:53:44.519Z,2.00
2019-03-25T01:54:15.689Z,1.98
2019-03-25T01:54:46.919Z,1.96
2019-03-25T01:55:18.121Z,1.95
2019-03-25T01:55:49.342Z,1.97
2019-03-25T01:56:20.551Z,1.97
2019-03-25T01:56:51.767Z,1.98
2019-03-25T01:57:23.015Z,1.98
2019-03-25T01:57:54.436Z,1.97
2019-03-25T01:58:25.694Z,1.95
2019-03-25T01:58:56.906Z,1.94
2019-03-25T01:59:28.116Z,1.92
2019-03-25T01:59:59.275Z,1.92
2019-03-25T02:00:30.478Z,1.92
2019-03-25T02:01:01.625Z,1.90
2019-03-25T02:01:32.816Z,1.90
2019-03-25T02:02:03.964Z,1.90
2019-03-25T02:02:35.162Z,1.91
2019-03-25T02:03:07.316Z,1.89
2019-03-25T02:03:38.528Z,1.89
2019-03-25T02:04:09.671Z,1.78
2019-03-25T02:04:40.873Z,1.91
2019-03-25T02:05:12.018Z,1.92
2019-03-25T02:05:43.207Z,1.92
2019-03-25T02:06:14.417Z,1.93
2019-03-25T02:06:45.652Z,1.95
2019-03-25T02:07:16.856Z,1.95
2019-03-25T02:07:48.240Z,1.93
2019-03-25T02:08:19.388Z,1.95
2019-03-25T02:08:50.589Z,1.95
2019-03-25T02:09:21.860Z,1.96
2019-03-25T02:09:53.066Z,1.96
2019-03-25T02:10:24.331Z,1.96
2019-03-25T02:10:55.512Z,1.95
2019-03-25T02:11:26.747Z,1.93
2019-03-25T02:11:57.925Z,1.93
2019-03-25T02:12:29.101Z,1.95
2019-03-25T02:13:00.305Z,1.89
2019-03-25T02:13:31.473Z,1.89
2019-03-25T02:14:02.643Z,1.88
2019-03-25T02:14:33.849Z,1.88
2019-03-25T02:15:05.345Z,1.86
2019-03-25T02:15:36.533Z,1.86
2019-03-25T02:16:07.708Z,1.85
2019-03-25T02:16:38.889Z,1.83
2019-03-25T02:17:10.065Z,1.82
2019-03-25T02:17:41.250Z,1.80
2019-03-25T02:18:12.418Z,1.77
2019-03-25T02:18:43.604Z,1.77
2019-03-25T02:19:14.781Z,1.65
2019-03-25T02:19:46.038Z,1.75
2019-03-25T02:20:25.945Z,1.73
2019-03-25T02:20:50.336Z,1.73
2019-03-25T02:21:21.492Z,1.75
2019-03-25T02:21:52.751Z,1.75
2019-03-25T02:22:23.905Z,1.75
2019-03-25T02:22:56.398Z,1.73
2019-03-25T02:23:27.644Z,1.74
2019-03-25T02:23:58.848Z,1.74
2019-03-25T02:24:30.008Z,1.75
2019-03-25T02:25:01.507Z,1.75
2019-03-25T02:25:32.664Z,1.74
2019-03-25T02:26:03.856Z,1.71
2019-03-25T02:26:35.051Z,1.73
2019-03-25T02:27:06.312Z,1.73
2019-03-25T02:27:37.478Z,1.72
2019-03-25T02:28:08.680Z,1.71
2019-03-25T02:28:39.825Z,1.69
2019-03-25T02:29:11.015Z,1.69
2019-03-25T02:29:42.201Z,1.68
2019-03-25T02:30:13.402Z,1.69
2019-03-25T02:30:44.566Z,1.71
2019-03-25T02:31:16.759Z,1.74
2019-03-25T02:31:47.897Z,1.75
2019-03-25T02:32:19.103Z,1.75
2019-03-25T02:32:50.274Z,1.73
2019-03-25T02:33:21.467Z,1.72
2019-03-25T02:33:52.617Z,1.72
2019-03-25T02:34:23.833Z,1.71
2019-03-25T02:34:55.011Z,1.71
2019-03-25T02:35:26.195Z,1.70
2019-03-25T02:35:57.376Z,1.70
2019-03-25T02:36:28.543Z,1.70
2019-03-25T02:36:59.734Z,1.69
2019-03-25T02:37:30.910Z,1.68
2019-03-25T02:38:02.172Z,1.69
2019-03-25T02:38:33.369Z,1.69
2019-03-25T02:39:04.556Z,1.71
2019-03-25T02:39:36.489Z,1.72
2019-03-25T02:40:07.747Z,1.75
2019-03-25T02:40:38.947Z,1.75
2019-03-25T02:41:10.144Z,1.75
2019-03-25T02:41:41.323Z,1.74
2019-03-25T02:42:12.510Z,1.76
2019-03-25T02:42:43.671Z,1.77
2019-03-25T02:43:14.850Z,1.74
2019-03-25T02:43:46.165Z,1.76
2019-03-25T02:44:17.396Z,1.75
2019-03-25T02:44:48.628Z,1.66
2019-03-25T02:45:19.828Z,1.76
2019-03-25T02:45:50.973Z,1.74
2019-03-25T02:46:22.164Z,1.76
2019-03-25T02:46:53.341Z,1.77
2019-03-25T02:47:24.540Z,1.77
2019-03-25T02:47:55.736Z,1.78
2019-03-25T02:48:26.949Z,1.80
2019-03-25T02:48:58.098Z,1.81
2019-03-25T02:49:29.283Z,1.80
2019-03-25T02:50:00.660Z,1.80
2019-03-25T02:50:31.942Z,1.81
2019-03-25T02:51:03.117Z,1.82
2019-03-25T02:51:34.312Z,1.84
2019-03-25T02:52:05.492Z,1.84
2019-03-25T02:52:36.698Z,1.84
2019-03-25T02:53:07.871Z,1.87
2019-03-25T02:53:39.070Z,1.88
2019-03-25T02:54:10.215Z,1.88
2019-03-25T02:54:41.406Z,1.85
2019-03-25T02:55:12.626Z,1.81
2019-03-25T02:55:43.845Z,1.79
2019-03-25T02:56:15.121Z,1.79
2019-03-25T02:56:46.353Z,1.80
2019-03-25T02:57:17.565Z,1.81
2019-03-25T02:57:48.794Z,1.80
2019-03-25T02:58:20.018Z,1.79
2019-03-25T02:58:51.263Z,1.78
2019-03-25T02:59:22.476Z,1.78
2019-03-25T02:59:53.773Z,1.80
2019-03-25T03:00:37.414Z,1.82
2019-03-25T03:01:08.574Z,1.82
2019-03-25T03:01:39.856Z,1.86
2019-03-25T03:02:10.993Z,1.88
2019-03-25T03:02:42.202Z,1.91
2019-03-25T03:03:13.337Z,1.92
2019-03-25T03:03:44.537Z,1.94
2019-03-25T03:04:15.681Z,1.97
2019-03-25T03:04:46.882Z,2.00
2019-03-25T03:05:18.066Z,2.04
2019-03-25T03:05:49.260Z,2.04
2019-03-25T03:06:20.402Z,2.06
2019-03-25T03:06:51.605Z,2.06
2019-03-25T03:07:22.752Z,2.09
2019-03-25T03:07:53.956Z,2.11
2019-03-25T03:08:25.124Z,2.11
2019-03-25T03:08:56.330Z,2.12
2019-03-25T03:09:27.488Z,2.12
2019-03-25T03:09:58.675Z,2.10
2019-03-25T03:10:29.884Z,2.10
2019-03-25T03:11:01.054Z,2.10
2019-03-25T03:11:32.226Z,2.10
2019-03-25T03:12:03.505Z,2.10
2019-03-25T03:12:34.793Z,2.09
2019-03-25T03:13:05.962Z,2.09
2019-03-25T03:13:37.160Z,2.09
2019-03-25T03:14:08.347Z,2.10
2019-03-25T03:14:39.514Z,2.10
2019-03-25T03:15:10.679Z,2.10
2019-03-25T03:15:41.855Z,2.08
2019-03-25T03:16:13.030Z,2.07
2019-03-25T03:16:44.220Z,2.08
2019-03-25T03:17:15.401Z,2.09
2019-03-25T03:17:46.563Z,2.09
2019-03-25T03:18:17.738Z,2.10
2019-03-25T03:18:48.925Z,2.11
2019-03-25T03:19:20.119Z,2.11
2019-03-25T03:19:51.296Z,2.15
2019-03-25T03:20:22.473Z,2.15
2019-03-25T03:20:53.659Z,2.15
2019-03-25T03:21:24.828Z,2.15
2019-03-25T03:21:56.012Z,2.15
2019-03-25T03:22:27.305Z,2.17
2019-03-25T03:22:58.558Z,2.17
2019-03-25T03:23:29.933Z,2.18
2019-03-25T03:24:01.132Z,2.19
2019-03-25T03:24:33.284Z,2.08
2019-03-25T03:25:04.489Z,2.21
2019-03-25T03:25:35.680Z,2.20
2019-03-25T03:26:06.861Z,2.20
2019-03-25T03:26:39.107Z,2.19
2019-03-25T03:27:10.279Z,2.19
2019-03-25T03:27:41.477Z,2.20
2019-03-25T03:28:12.663Z,2.19
2019-03-25T03:28:43.853Z,2.19
2019-03-25T03:29:15.094Z,2.15
2019-03-25T03:29:46.280Z,2.13
2019-03-25T03:30:18.477Z,2.13
2019-03-25T03:30:49.667Z,2.14
2019-03-25T03:31:20.820Z,2.13
2019-03-25T03:31:52.110Z,2.14
2019-03-25T03:32:23.269Z,2.13
2019-03-25T03:32:54.468Z,2.14
2019-03-25T03:33:25.705Z,2.12
2019-03-25T03:33:56.894Z,2.10
2019-03-25T03:34:28.058Z,2.12
2019-03-25T03:34:59.247Z,2.12
2019-03-25T03:35:30.390Z,2.12
2019-03-25T03:36:01.599Z,2.12
2019-03-25T03:36:32.766Z,2.12
2019-03-25T03:37:04.018Z,2.12
2019-03-25T03:37:35.203Z,2.11
2019-03-25T03:38:06.439Z,2.10
2019-03-25T03:38:37.602Z,2.10
2019-03-25T03:39:08.788Z,2.08
2019-03-25T03:39:39.954Z,2.07
2019-03-25T03:40:11.142Z,2.07
2019-03-25T03:40:42.320Z,2.07
2019-03-25T03:41:13.536Z,2.06
2019-03-25T03:41:44.686Z,2.06
2019-03-25T03:42:15.871Z,2.05
2019-03-25T03:42:47.126Z,2.03
2019-03-25T03:43:18.351Z,2.03
2019-03-25T03:43:49.532Z,2.05
2019-03-25T03:44:20.812Z,2.05
2019-03-25T03:44:52.027Z,2.04
2019-03-25T03:45:23.246Z,2.05
2019-03-25T03:45:54.445Z,2.05
2019-03-25T03:46:25.617Z,2.05
2019-03-25T03:46:56.956Z,2.03
2019-03-25T03:47:28.181Z,2.03
2019-03-25T03:47:59.413Z,2.02
2019-03-25T03:48:30.695Z,1.91
2019-03-25T03:49:01.901Z,1.91
2019-03-25T03:49:33.142Z,2.00
2019-03-25T03:50:05.505Z,2.00
2019-03-25T03:50:36.760Z,2.00
2019-03-25T03:51:07.940Z,2.00
2019-03-25T03:51:39.106Z,1.98
2019-03-25T03:52:10.296Z,2.00
2019-03-25T03:52:41.474Z,2.00
2019-03-25T03:53:12.768Z,1.98
2019-03-25T03:53:43.927Z,1.98
2019-03-25T03:54:15.138Z,1.98
2019-03-25T03:54:46.395Z,1.95
2019-03-25T03:55:17.592Z,1.96
2019-03-25T03:55:48.854Z,1.97
2019-03-25T03:56:20.050Z,1.98
2019-03-25T03:56:52.204Z,1.97
2019-03-25T03:57:23.413Z,1.94
2019-03-25T03:57:54.884Z,1.83
2019-03-25T03:58:26.097Z,1.83
2019-03-25T03:58:57.331Z,1.91
2019-03-25T03:59:28.527Z,1.91
2019-03-25T04:00:00.421Z,1.90
2019-03-25T04:00:32.779Z,1.89
2019-03-25T04:01:04.948Z,1.90
2019-03-25T04:01:36.167Z,1.90
2019-03-25T04:02:07.340Z,1.90
2019-03-25T04:02:38.527Z,1.90
2019-03-25T04:03:09.709Z,1.89
2019-03-25T04:03:40.977Z,1.90
2019-03-25T04:04:12.127Z,1.90
2019-03-25T04:04:43.347Z,1.91
2019-03-25T04:05:14.498Z,1.91
2019-03-25T04:05:45.688Z,1.84
2019-03-25T04:06:16.881Z,1.92
2019-03-25T04:06:48.103Z,1.92
2019-03-25T04:07:19.256Z,1.92
2019-03-25T04:07:50.449Z,1.92
2019-03-25T04:08:21.594Z,1.79
2019-03-25T04:08:52.790Z,1.90
2019-03-25T04:09:23.953Z,1.89
2019-03-25T04:09:55.145Z,1.89
2019-03-25T04:10:26.291Z,1.89
2019-03-25T04:10:57.468Z,1.88
2019-03-25T04:11:28.640Z,1.88
2019-03-25T04:11:59.784Z,1.89
2019-03-25T04:12:30.963Z,1.89
2019-03-25T04:13:02.209Z,1.88
2019-03-25T04:13:33.361Z,1.88
2019-03-25T04:14:04.614Z,1.88
2019-03-25T04:14:36.911Z,1.88
2019-03-25T04:15:12.042Z,1.87
2019-03-25T04:15:44.204Z,1.87
2019-03-25T04:16:15.394Z,1.87
2019-03-25T04:16:46.554Z,1.86
2019-03-25T04:17:17.697Z,1.84
2019-03-25T04:17:48.898Z,1.84
2019-03-25T04:18:20.061Z,1.84
2019-03-25T04:18:51.258Z,1.85
2019-03-25T04:19:22.442Z,1.85
2019-03-25T04:19:53.759Z,1.87
2019-03-25T04:20:24.915Z,1.89
2019-03-25T04:20:56.094Z,1.90
2019-03-25T04:21:28.311Z,1.90
2019-03-25T04:21:59.611Z,1.92
2019-03-25T04:22:30.765Z,1.92
2019-03-25T04:23:01.986Z,1.94
2019-03-25T04:23:33.129Z,1.94
2019-03-25T04:24:04.338Z,1.94
2019-03-25T04:24:35.509Z,1.92
2019-03-25T04:25:06.729Z,1.92
2019-03-25T04:25:37.980Z,1.91
2019-03-25T04:26:09.172Z,1.92
2019-03-25T04:26:40.373Z,1.91
2019-03-25T04:27:12.630Z,1.91
2019-03-25T04:27:43.824Z,1.92
2019-03-25T04:28:15.005Z,1.92
2019-03-25T04:28:46.195Z,1.90
2019-03-25T04:29:17.408Z,1.91
2019-03-25T04:29:48.571Z,1.92
2019-03-25T04:30:19.734Z,1.92
2019-03-25T04:30:50.928Z,1.92
2019-03-25T04:31:22.101Z,1.91
2019-03-25T04:31:53.278Z,1.90
2019-03-25T04:32:24.440Z,1.91
2019-03-25T04:32:55.740Z,1.91
2019-03-25T04:33:26.912Z,1.91
2019-03-25T04:33:58.076Z,1.91
2019-03-25T04:34:29.260Z,1.91
2019-03-25T04:35:00.520Z,1.91
2019-03-25T04:35:31.709Z,1.93
2019-03-25T04:36:03.008Z,1.93
2019-03-25T04:36:34.183Z,1.93
2019-03-25T04:37:05.359Z,1.95
2019-03-25T04:37:36.533Z,1.97
2019-03-25T04:38:07.816Z,1.98
2019-03-25T04:38:39.015Z,1.97
2019-03-25T04:39:10.178Z,1.96
2019-03-25T04:39:41.356Z,1.95
2019-03-25T04:40:12.631Z,1.93
2019-03-25T04:40:43.814Z,1.93
2019-03-25T04:41:15.002Z,1.92
2019-03-25T04:41:46.281Z,1.94
2019-03-25T04:42:17.447Z,1.94
2019-03-25T04:42:48.663Z,1.95
2019-03-25T04:43:19.882Z,1.95
2019-03-25T04:43:51.032Z,1.95
2019-03-25T04:44:22.257Z,1.96
2019-03-25T04:44:53.593Z,1.95
2019-03-25T04:45:24.859Z,1.95
2019-03-25T04:45:56.111Z,1.95
2019-03-25T04:46:27.325Z,1.94
2019-03-25T04:46:58.527Z,1.95
2019-03-25T04:47:29.676Z,1.96
2019-03-25T04:48:00.885Z,2.00
2019-03-25T04:48:32.041Z,2.00
2019-03-25T04:49:03.263Z,2.00
2019-03-25T04:49:34.411Z,2.00
2019-03-25T04:50:05.644Z,1.99
2019-03-25T04:50:36.856Z,2.00
2019-03-25T04:51:08.063Z,2.04
2019-03-25T04:51:39.211Z,2.04
2019-03-25T04:52:10.411Z,2.06
2019-03-25T04:52:41.556Z,2.06
2019-03-25T04:53:12.760Z,2.07
2019-03-25T04:53:43.909Z,2.09
2019-03-25T04:54:15.217Z,2.11
2019-03-25T04:54:46.384Z,2.11
2019-03-25T04:55:17.600Z,2.12
2019-03-25T04:55:48.760Z,2.12
2019-03-25T04:56:20.068Z,2.14
2019-03-25T04:56:51.218Z,2.14
2019-03-25T04:57:22.492Z,2.13
2019-03-25T04:57:53.738Z,2.13
2019-03-25T04:58:24.927Z,1.97
2019-03-25T04:58:56.110Z,2.12
2019-03-25T04:59:27.318Z,2.11
2019-03-25T04:59:58.507Z,2.03
2019-03-25T05:00:33.200Z,2.12
2019-03-25T05:01:04.367Z,2.12
2019-03-25T05:01:35.571Z,2.12
2019-03-25T05:02:06.753Z,2.10
2019-03-25T05:02:37.961Z,2.10
2019-03-25T05:03:09.127Z,2.10
2019-03-25T05:03:40.330Z,2.10
2019-03-25T05:04:11.495Z,2.12
2019-03-25T05:04:42.697Z,2.13
2019-03-25T05:05:13.841Z,2.12
2019-03-25T05:05:45.041Z,2.06
2019-03-25T05:06:16.202Z,2.09
2019-03-25T05:06:47.401Z,2.09
2019-03-25T05:07:18.578Z,2.09
2019-03-25T05:07:49.811Z,2.08
2019-03-25T05:08:21.037Z,2.06
2019-03-25T05:08:52.247Z,2.06
2019-03-25T05:09:23.590Z,2.04
2019-03-25T05:09:54.823Z,2.05
2019-03-25T05:10:26.073Z,2.04
2019-03-25T05:10:57.268Z,2.02
2019-03-25T05:11:30.766Z,2.02
2019-03-25T05:12:01.648Z,1.99
2019-03-25T05:12:32.811Z,1.99
2019-03-25T05:13:03.968Z,1.98
2019-03-25T05:13:35.169Z,1.97
2019-03-25T05:14:06.330Z,1.97
2019-03-25T05:14:37.540Z,1.95
2019-03-25T05:15:08.685Z,1.94
2019-03-25T05:15:39.890Z,1.94
2019-03-25T05:16:11.089Z,1.91
2019-03-25T05:16:42.290Z,1.91
2019-03-25T05:17:13.468Z,1.90
2019-03-25T05:17:44.664Z,1.90
2019-03-25T05:18:15.825Z,1.89
2019-03-25T05:18:47.021Z,1.88
2019-03-25T05:19:18.184Z,1.89
2019-03-25T05:19:50.417Z,1.89
2019-03-25T05:20:21.583Z,1.89
2019-03-25T05:20:52.771Z,1.89
2019-03-25T05:21:23.932Z,1.88
2019-03-25T05:21:55.137Z,1.88
2019-03-25T05:22:26.305Z,1.87
2019-03-25T05:22:57.481Z,1.88
2019-03-25T05:23:28.730Z,1.88
2019-03-25T05:23:59.905Z,1.88
2019-03-25T05:24:31.076Z,1.88
2019-03-25T05:25:04.149Z,1.88
2019-03-25T05:25:35.315Z,1.90
2019-03-25T05:26:06.492Z,1.91
2019-03-25T05:26:37.659Z,1.91
2019-03-25T05:27:08.841Z,1.91
2019-03-25T05:27:39.999Z,1.92
2019-03-25T05:28:11.187Z,1.93
2019-03-25T05:28:42.382Z,1.92
2019-03-25T05:29:13.526Z,1.94
2019-03-25T05:29:44.729Z,1.93
2019-03-25T05:30:15.883Z,1.93
2019-03-25T05:30:47.071Z,1.95
2019-03-25T05:31:18.265Z,1.96
2019-03-25T05:31:49.455Z,1.97
2019-03-25T05:32:20.601Z,1.98
2019-03-25T05:32:51.785Z,1.98
2019-03-25T05:33:22.947Z,1.99
2019-03-25T05:33:54.326Z,1.99
2019-03-25T05:34:25.489Z,1.99
2019-03-25T05:34:56.713Z,1.99
2019-03-25T05:35:27.850Z,2.00
2019-03-25T05:35:59.047Z,2.01
2019-03-25T05:36:30.208Z,2.02
2019-03-25T05:37:01.415Z,2.04
2019-03-25T05:37:32.588Z,2.06
2019-03-25T05:38:03.790Z,2.09
2019-03-25T05:38:34.944Z,2.09
2019-03-25T05:39:07.632Z,2.11
2019-03-25T05:39:39.784Z,2.13
2019-03-25T05:40:10.984Z,2.16
2019-03-25T05:40:42.147Z,2.19
2019-03-25T05:41:13.330Z,2.21
2019-03-25T05:41:44.500Z,2.22
2019-03-25T05:42:15.758Z,2.24
2019-03-25T05:42:46.974Z,2.26
2019-03-25T05:43:18.152Z,2.27
2019-03-25T05:43:50.318Z,2.28
2019-03-25T05:44:21.562Z,2.32
2019-03-25T05:44:52.792Z,2.32
2019-03-25T05:45:24.165Z,2.34
2019-03-25T05:45:55.383Z,2.34
2019-03-25T05:46:26.714Z,2.35
2019-03-25T05:46:57.955Z,2.36
2019-03-25T05:47:29.188Z,2.37
2019-03-25T05:48:00.382Z,2.37
2019-03-25T05:48:31.532Z,2.37
2019-03-25T05:49:02.737Z,2.41
2019-03-25T05:49:33.879Z,2.43
2019-03-25T05:50:05.563Z,2.45
2019-03-25T05:50:36.817Z,2.47
2019-03-25T05:51:08.047Z,2.48
2019-03-25T05:51:39.199Z,2.50
2019-03-25T05:52:10.389Z,2.52
2019-03-25T05:52:41.628Z,2.56
2019-03-25T05:53:12.827Z,2.56
2019-03-25T05:53:43.978Z,2.56
2019-03-25T05:54:15.201Z,2.59
2019-03-25T05:54:46.351Z,2.61
2019-03-25T05:55:17.611Z,2.62
2019-03-25T05:55:48.813Z,2.64
2019-03-25T05:56:21.001Z,2.66
2019-03-25T05:57:02.066Z,2.67
2019-03-25T05:57:25.256Z,2.68
2019-03-25T05:57:56.544Z,2.69
2019-03-25T05:58:27.764Z,2.67
2019-03-25T05:58:59.002Z,2.67
2019-03-25T05:59:31.222Z,2.67
2019-03-25T06:00:02.549Z,2.68
2019-03-25T06:00:35.877Z,2.69
2019-03-25T06:01:07.206Z,2.60
2019-03-25T06:01:38.430Z,2.60
2019-03-25T06:02:09.714Z,2.69
2019-03-25T06:02:40.939Z,2.69
2019-03-25T06:03:12.146Z,2.65
2019-03-25T06:03:43.297Z,2.65
2019-03-25T06:04:14.502Z,2.76
2019-03-25T06:04:45.710Z,2.76
2019-03-25T06:05:16.916Z,2.78
2019-03-25T06:05:48.057Z,2.80
2019-03-25T06:06:19.262Z,2.78
2019-03-25T06:06:52.164Z,2.82
2019-03-25T06:07:23.589Z,2.84
2019-03-25T06:07:54.796Z,2.85
2019-03-25T06:08:25.993Z,2.87
2019-03-25T06:08:57.163Z,2.87
2019-03-25T06:09:28.390Z,2.85
2019-03-25T06:09:59.569Z,2.85
2019-03-25T06:10:30.787Z,2.87
2019-03-25T06:11:01.929Z,2.87
2019-03-25T06:11:33.225Z,2.90
2019-03-25T06:12:04.397Z,2.90
2019-03-25T06:12:35.554Z,2.83
2019-03-25T06:13:06.753Z,2.91
2019-03-25T06:13:37.943Z,2.92
2019-03-25T06:14:09.105Z,2.93
2019-03-25T06:14:40.337Z,2.91
2019-03-25T06:15:11.537Z,2.97
2019-03-25T06:15:42.747Z,2.95
2019-03-25T06:16:13.901Z,2.95
2019-03-25T06:16:45.107Z,2.94
2019-03-25T06:17:16.273Z,2.85
2019-03-25T06:17:47.491Z,2.95
2019-03-25T06:18:20.409Z,2.92
2019-03-25T06:18:51.763Z,2.92
2019-03-25T06:19:22.914Z,2.91
2019-03-25T06:19:54.112Z,2.92
2019-03-25T06:20:25.275Z,2.91
2019-03-25T06:20:56.566Z,2.95
2019-03-25T06:21:27.711Z,2.95
2019-03-25T06:21:58.924Z,2.92
2019-03-25T06:22:30.080Z,2.91
2019-03-25T06:23:01.275Z,2.84
2019-03-25T06:23:32.458Z,2.94
2019-03-25T06:24:03.737Z,2.94
2019-03-25T06:24:34.922Z,2.95
2019-03-25T06:25:06.099Z,2.96
2019-03-25T06:25:37.254Z,2.96
2019-03-25T06:26:08.437Z,2.98
2019-03-25T06:26:39.605Z,2.98
2019-03-25T06:27:14.432Z,2.99
2019-03-25T06:27:43.858Z,2.99
2019-03-25T06:28:15.043Z,2.99
2019-03-25T06:28:47.257Z,2.96
2019-03-25T06:29:18.425Z,2.92
2019-03-25T06:29:49.602Z,2.91
2019-03-25T06:30:20.882Z,2.91
2019-03-25T06:30:52.059Z,2.83
2019-03-25T06:31:23.230Z,2.83
2019-03-25T06:31:54.454Z,2.93
2019-03-25T06:32:25.643Z,2.94
2019-03-25T06:32:56.821Z,2.91
2019-03-25T06:33:28.020Z,2.95
2019-03-25T06:33:59.192Z,2.95
2019-03-25T06:34:30.371Z,2.94
2019-03-25T06:35:01.770Z,2.92
2019-03-25T06:35:33.041Z,2.93
2019-03-25T06:36:04.289Z,2.92
2019-03-25T06:36:35.456Z,2.92
2019-03-25T06:37:06.653Z,2.93
2019-03-25T06:37:37.923Z,2.94
2019-03-25T06:38:09.107Z,2.95
2019-03-25T06:38:40.295Z,2.94
2019-03-25T06:39:11.432Z,2.96
2019-03-25T06:39:42.632Z,2.97
2019-03-25T06:40:13.795Z,2.97
2019-03-25T06:40:44.999Z,2.98
2019-03-25T06:41:16.159Z,2.99
2019-03-25T06:41:47.326Z,3.00
2019-03-25T06:42:18.492Z,2.98
2019-03-25T06:42:49.726Z,2.98
2019-03-25T06:43:20.951Z,3.04
2019-03-25T06:43:52.150Z,3.04
2019-03-25T06:44:23.316Z,3.05
2019-03-25T06:44:54.499Z,3.07
2019-03-25T06:45:25.690Z,3.06
2019-03-25T06:45:56.918Z,3.06
2019-03-25T06:46:28.140Z,3.07
2019-03-25T06:46:59.392Z,3.07
2019-03-25T06:47:30.652Z,3.09
2019-03-25T06:48:01.902Z,3.09
2019-03-25T06:48:33.126Z,3.10
2019-03-25T06:49:04.370Z,3.11
2019-03-25T06:49:35.512Z,3.12
2019-03-25T06:50:06.720Z,3.12
2019-03-25T06:50:37.882Z,3.13
2019-03-25T06:51:09.088Z,3.15
2019-03-25T06:51:41.270Z,3.15
2019-03-25T06:52:12.568Z,3.17
2019-03-25T06:52:43.725Z,3.19
2019-03-25T06:53:14.937Z,3.20
2019-03-25T06:53:46.111Z,3.18
2019-03-25T06:54:17.307Z,3.21
2019-03-25T06:54:48.455Z,3.21
2019-03-25T06:55:19.651Z,3.21
2019-03-25T06:55:50.811Z,3.21
2019-03-25T06:56:22.025Z,3.20
2019-03-25T06:56:53.169Z,3.20